Hamilton/Waterdown Heliport

CWD3 · Ontario, Kanada

METAR-Geschichte CWD3 · Hamilton/Waterdown Heliport

Unten siehst du die METARs der letzten paar Tage. Wähle ein Jahr, um ältere METARs ab dem Jahr 2007 zu durchsuchen.

21. April 2024

Uhrzeit Code Wetter Temp. Sichtweite Wolkendecke Wind METAR/SPECI
07:00
V
3 °C 15 mi 5.800 ft 270° 270° 4 kt METAR CYHM 211100Z 27004KT 15SM OVC058 03/M01 A3003 RMK SC8 SLP177
06:00
V
3 °C 15 mi 6.000 ft 250° 250° 4 kt METAR CYHM 211000Z 25004KT 15SM OVC060 03/M02 A3002 RMK SC8 SLP175
05:00
V
4 °C 15 mi 6.000 ft 250° 250° 6 kt METAR CYHM 210900Z 25006KT 15SM BKN060 04/M02 A3002 RMK SC7 SLP174
04:00
V
4 °C 15 mi 5.000 ft 250° 250° 7 kt METAR CYHM 210800Z 25007KT 15SM BKN050 04/M02 A3001 RMK SC7 SLP170
03:00
V
3 °C 15 mi 5.500 ft 230° 230° 6 kt METAR CYHM 210700Z 23006KT 15SM BKN055 03/M02 A3000 RMK SC7 SLP170
02:00
V
3 °C 15 mi 6.000 ft 220° 220° 6 kt METAR CYHM 210600Z 22006KT 15SM BKN060 03/M02 A3003 RMK SC7 SLP177
01:00
V
3 °C 15 mi 6.000 ft 220° 220° 5 kt METAR CYHM 210500Z 22005KT 15SM BKN060 03/M01 A3005 RMK SC7 SLP184
00:00
V
3 °C 15 mi - 220° 220° 4 kt METAR CYHM 210400Z 22004KT 15SM SCT058 03/M02 A3005 RMK SC7 SLP185

20. April 2024

Uhrzeit Code Wetter Temp. Sichtweite Wolkendecke Wind METAR/SPECI
23:00
V
4 °C 15 mi 5.800 ft 220° 220° 5 kt METAR CYHM 210300Z 22005KT 15SM BKN058 04/M02 A3007 RMK SC7 SLP193
22:00
V
4 °C 15 mi 6.000 ft 250° 250° 5 kt METAR CYHM 210200Z 25005KT 15SM BKN060 04/M03 A3008 RMK SC7 SLP194
21:00
V
4 °C 15 mi 5.500 ft 260° 260° 6 kt METAR CYHM 210100Z 26006KT 15SM BKN055 04/M03 A3008 RMK SC7 SLP195
20:00
V
5 °C 15 mi 5.500 ft 270° 270° 12 kt METAR CYHM 210000Z 27012KT 15SM FEW042 BKN055 05/M04 A3007 RMK CF1SC7 CF TR SLP192
19:00
V
5 °C 15 mi 5.500 ft 260° 260° 11 - 18 kt METAR CYHM 202300Z 26011G18KT 15SM FEW045 BKN055 05/M03 A3007 RMK CF1SC6 SLP192
18:00
V
6 °C 15 mi 5.400 ft 280° 280° 13 - 18 kt METAR CYHM 202200Z 28013G18KT 15SM FEW046 BKN054 06/M04 A3006 RMK CF2SC5 SLP188
17:00
V
6 °C 15 mi 5.400 ft 290° 290° 10 - 16 kt METAR CYHM 202100Z 29010G16KT 15SM FEW042 BKN054 06/M03 A3005 RMK SC1SC6 SLP183
16:00
V
5 °C 15 mi 6.000 ft 270° 270° 13 - 19 kt METAR CYHM 202000Z 27013G19KT 15SM SCT034 BKN060 05/M02 A3005 RMK SC3SC4 SLP184
15:00
V
5 °C 15 mi 5.000 ft 270° 270° 11 kt METAR CYHM 201900Z 27011KT 15SM SCT025 BKN050 05/M01 A3004 RMK SC3SC4 SLP181
14:39
V
5 °C 12 mi 4.000 ft 250° 250° 16 - 21 kt METAR CYHM 201839Z 25016G21KT 12SM FEW026 BKN040 05/M03 A3004 RMK SF2SC5 -SHGS CVCTV CLD EMBD SLP182
14:00
V
5 °C 15 mi 7.000 ft 260° 260° 15 - 21 kt METAR CYHM 201800Z 26015G21KT 15SM FEW030 BKN070 05/M03 A3003 RMK SF2AC5 SLP179
13:44
V
5 °C 15 mi 6.000 ft 270° 270° 14 - 21 kt METAR CYHM 201744Z 27014G21KT 15SM FEW030 BKN060 05/M03 A3003 RMK SF1SC6 SLP179
13:00
V
4 °C 15 mi 3.200 ft 280° 280° 14 - 23 kt METAR CYHM 201700Z 28014G23KT 15SM BKN032 OVC050 04/M02 A3003 RMK SC5SC3 -SHSN CVCTV CLD EMBD SLP176
12:47
V
4 °C 15 mi 4.300 ft 270° 270° 15 - 20 kt METAR CYHM 201647Z 27015G20KT 15SM FEW035 OVC043 04/M03 A3002 RMK SC2SC6 -SHSN CVCTV CLD EMBD SLP175
12:00
V
6 °C 15 mi 6.500 ft 280° 280° 16 - 24 kt METAR CYHM 201600Z 28016G24KT 15SM FEW040 BKN065 06/M04 A3001 RMK CU2SC5 SLP169
11:00
V
5 °C 15 mi 5.000 ft 270° 270° 14 - 21 kt METAR CYHM 201500Z 27014G21KT 15SM FEW040 OVC050 05/M05 A2999 RMK CU1SC7 SLP163
10:00
V
5 °C 15 mi 3.700 ft 260° 260° 16 - 22 kt METAR CYHM 201400Z 26016G22KT 15SM BKN037 OVC060 05/M04 A2997 RMK SC7SC1 SLP158
09:00
V
5 °C 15 mi 4.000 ft 290° 290° 11 - 16 kt METAR CYHM 201300Z 29011G16KT 15SM FEW020 BKN040 05/M03 A2996 RMK CF1SC6 SLP153
08:00
M
5 °C 15 mi 2.000 ft 300° 300° 14 - 23 kt METAR CYHM 201200Z 30014G23KT 15SM BKN020 BKN070 05/M00 A2995 RMK SC6AC1 SLP150=
07:00
V
6 °C 15 mi - 240° 240° 11 - 18 kt METAR CYHM 201100Z 24011G18KT 15SM FEW068 06/M01 A2992 RMK AC2 SLP136=
06:00
V
7 °C 15 mi 8.400 ft 200° 200° 13 kt METAR CYHM 201000Z 20013KT 15SM BKN084 07/M03 A2991 RMK AC7 SLP133=
05:00
V
6 °C 15 mi 8.600 ft 200° 200° 8 kt METAR CYHM 200900Z 20008KT 15SM BKN086 OVC250 06/M02 A2993 RMK AC7CI1 SLP141=
04:00
V
5 °C 15 mi 18.000 ft 180° 180° 7 kt METAR CYHM 200800Z 18007KT 15SM BKN180 BKN250 05/M01 A2995 RMK AC6CI1 SLP147=
03:00
V
5 °C 15 mi 18.000 ft 190° 190° 5 kt METAR CYHM 200700Z 19005KT 15SM FEW140 BKN180 05/M01 A2996 RMK AC2AC5 MOON VISBL SLP152=
02:00
V
5 °C 15 mi 13.000 ft 210° 210° 6 kt METAR CYHM 200600Z 21006KT 15SM OVC130 05/M00 A2998 RMK AC8 SLP158=
01:00
V
6 °C 15 mi 13.000 ft 250° 250° 3 kt METAR CYHM 200500Z 25003KT 15SM BKN130 06/M01 A2999 RMK AC7 SLP161=
00:00
V
7 °C 15 mi - 260° 260° 6 kt METAR CYHM 200400Z 26006KT 15SM FEW140 FEW200 SCT220 07/M01 A2998 RMK AC2CI1CI1 CI TR SLP157=

19. April 2024

Uhrzeit Code Wetter Temp. Sichtweite Wolkendecke Wind METAR/SPECI
23:00
V
8 °C 15 mi 14.000 ft 270° 270° 5 kt METAR CYHM 200300Z 27005KT 15SM BKN140 08/M01 A2997 RMK AC7 SLP156=
22:00
V
9 °C 15 mi - 270° 270° 7 kt METAR CYHM 200200Z 27007KT 15SM FEW060 FEW140 SCT250 09/00 A2996 RMK SC1AC2CI1 SC TR SLP153=
21:00
V
10 °C 15 mi 14.000 ft 260° 260° 6 kt METAR CYHM 200100Z 26006KT 15SM FEW050 BKN140 10/01 A2994 RMK SC2AC4 SLP144=
20:00
V
12 °C 15 mi 15.000 ft 250° 250° 6 kt METAR CYHM 200000Z 25006KT 15SM VCSH SCT050TCU BKN150 12/03 A2991 RMK TCU3AC3 SHWRS NE - SE SLP135=
19:00
V
14 °C 15 mi 15.000 ft 240° 240° 14 kt METAR CYHM 192300Z 24014KT 15SM FEW038 SCT052 BKN150 14/03 A2990 RMK CU2SC2AC2 SLP131=
18:00
V
14 °C 15 mi - 250° 250° 8 - 18 kt METAR CYHM 192200Z 25008G18KT 15SM SCT032 14/04 A2989 RMK SC3 CU ASOCTD SLP127=
17:00
V
14 °C 15 mi - 260° 260° 13 - 21 kt METAR CYHM 192100Z 26013G21KT 15SM FEW035 SCT042 14/04 A2988 RMK CU1SC2 SLP125 DENSITY ALT 1000FT=
16:00
V
14 °C 15 mi - 250° 250° 15 - 20 kt METAR CYHM 192000Z 25015G20KT 15SM FEW032 SCT040 SCT080 14/05 A2987 RMK CU2SC1AC1 AC TR SLP121 DENSITY ALT 1000FT=
15:00
M
13 °C 15 mi 2.200 ft 260° 260° 14 - 22 kt METAR CYHM 191900Z 26014G22KT 15SM BKN022 13/07 A2987 RMK SC6 CU ASOCTD SLP119=
14:00
M
14 °C 15 mi 2.000 ft 260° 260° 15 - 21 kt METAR CYHM 191800Z 26015G21KT 15SM BKN020 14/10 A2983 RMK SC7 SLP107=
13:28
M
14 °C 15 mi 1.600 ft 260° 260° 13 - 19 kt METAR SPECI CYHM 191728Z 26013G19KT 15SM BKN016 14/10 A2981 RMK SC7 CU ASOCTD SLP100 DENSITY ALT 1000FT=
13:00
M
13 °C 12 mi 1.300 ft 250° 250° 14 kt METAR CYHM 191700Z 25014KT 12SM BKN013 13/11 A2982 RMK SC7 SLP102=
12:43
M
12 °C 10 mi 1.000 ft 260° 260° 12 - 19 kt METAR SPECI CYHM 191643Z 26012G19KT 10SM BKN010 12/11 A2981 RMK SC7 SLP100=
12:00
I
11 °C 4 mi 600 ft 240° 240° 15 - 21 kt METAR CYHM 191600Z 24015G21KT 4SM RA BR BKN006 OVC018 11/11 A2982 RMK SC7SC1 SLP102=
11:00
M
9 °C 5 mi 2.000 ft 180° 180° 6 kt METAR CYHM 191500Z 18006KT 5SM BR BKN020 BKN030 OVC070 09/09 A2980 RMK SC5SC2AS1 SLP097=
10:50
M
9 °C 3 mi 2.000 ft 160° 160° 3 kt METAR SPECI CYHM 191450Z 16003KT 090V180 3SM BR FEW003 BKN020 OVC033 09/09 A2980 RMK SF1SC7SC1 SF TR SLP098=
10:34
I
7 °C 2 mi 2.400 ft Var Var 2 kt METAR SPECI CYHM 191434Z VRB02KT 2SM RA BR FEW003 BKN024 OVC033 07/07 A2980 RMK SF1SC5SC3 SLP098=
10:00
I
7 °C 1½ mi 2.800 ft 030° 030° 5 kt METAR CYHM 191400Z 03005KT 11/2SM RA BR FEW003 BKN028 OVC040 07/07 A2980 RMK SF1SC6SC2 SF TR SLP097=
09:48
I
7 °C 1¼ mi 3.500 ft 050° 050° 4 kt METAR SPECI CYHM 191348Z 05004KT 030V100 11/4SM RA BR FEW003 OVC035 07/07 A2980 RMK FG1SF1SC7 SF TR SLP098=
09:33
L
7 °C ¾ mi 4.400 ft Var Var 5 kt METAR SPECI CYHM 191333Z VRB05KT 3/4SM R12/P6000FT/D RA BR FEW003 OVC044 07/07 A2980 RMK FG1SF1SC7 SF TR PRESRR SLP099=
09:00
I
7 °C 1½ mi 7.000 ft 040° 040° 10 kt METAR CYHM 191300Z 04010KT 11/2SM RA BR FEW035 OVC070 07/07 A2980 RMK SC1AS8 SC TR PRESFR SLP098=
08:00
M
7 °C 3 mi 7.000 ft 030° 030° 10 kt METAR CYHM 191200Z 03010KT 3SM RA BR BKN070 OVC090 07/07 A2985 RMK AS6AC2 PRESFR SLP113=
07:46
M
7 °C 3 mi 7.000 ft 020° 020° 8 kt METAR SPECI CYHM 191146Z 02008KT 3SM RA BR BKN070 OVC098 07/07 A2987 RMK AS6AC2 SLP122=
07:00
V
8 °C 12 mi 9.000 ft 330° 330° 6 kt METAR CYHM 191100Z 33006KT 12SM RA FEW070 BKN090 BKN140 08/08 A2990 RMK AC1AS6AC1 AC TR SLP131=
06:00
V
7 °C 15 mi 20.000 ft 040° 040° 10 kt METAR CYHM 191000Z 04010KT 15SM FEW080 FEW160 OVC200 07/07 A2985 RMK AC1AC1CI7 AC TR SLP115=
05:00
V
7 °C 15 mi 17.000 ft 080° 080° 5 kt METAR CYHM 190900Z 08005KT 15SM FEW080 BKN170 OVC220 07/07 A2991 RMK AC2AC5CI1 SLP133=
04:00
V
7 °C 15 mi 18.000 ft 040° 040° 8 kt METAR CYHM 190800Z 04008KT 15SM RA BKN180 07/07 A2992 RMK AC7 SLP137=
03:00
V
7 °C 15 mi 23.000 ft 060° 060° 6 kt METAR CYHM 190700Z 06006KT 15SM FEW090 SCT160 BKN230 07/07 A2995 RMK AC2AC2CI2 SLP147=
02:00
V
8 °C 15 mi 16.000 ft 070° 070° 3 kt METAR CYHM 190600Z 07003KT 15SM SCT075 BKN160 08/08 A2997 RMK AC3AC3 SLP156=
Eine Änderung melden